sensor_id;sensor_type;location;lat;lon;timestamp;P1;durP1;ratioP1;P2;durP2;ratioP2
64242;SDS011;50573;51.512;5.386;2023-07-31T00:03:13;28.52;;;11.18;;
64242;SDS011;50573;51.512;5.386;2023-07-31T00:13:16;28.88;;;9.65;;
64242;SDS011;50573;51.512;5.386;2023-07-31T00:23:20;29.70;;;9.57;;
64242;SDS011;50573;51.512;5.386;2023-07-31T00:43:28;28.02;;;9.60;;
64242;SDS011;50573;51.512;5.386;2023-07-31T00:53:31;34.00;;;9.15;;
64242;SDS011;50573;51.512;5.386;2023-07-31T01:03:36;28.40;;;9.03;;
64242;SDS011;50573;51.512;5.386;2023-07-31T01:23:51;31.23;;;8.07;;
64242;SDS011;50573;51.512;5.386;2023-07-31T01:34:11;27.85;;;7.88;;
64242;SDS011;50573;51.512;5.386;2023-07-31T01:44:17;24.52;;;7.28;;
64242;SDS011;50573;51.512;5.386;2023-07-31T01:54:21;28.40;;;8.57;;
64242;SDS011;50573;51.512;5.386;2023-07-31T02:04:24;26.70;;;7.70;;
64242;SDS011;50573;51.512;5.386;2023-07-31T02:14:28;22.55;;;7.57;;
64242;SDS011;50573;51.512;5.386;2023-07-31T02:24:31;27.23;;;8.52;;
64242;SDS011;50573;51.512;5.386;2023-07-31T02:34:36;21.77;;;8.43;;
64242;SDS011;50573;51.512;5.386;2023-07-31T02:44:39;28.20;;;9.43;;
64242;SDS011;50573;51.512;5.386;2023-07-31T02:54:43;24.02;;;8.63;;
64242;SDS011;50573;51.512;5.386;2023-07-31T03:04:46;33.53;;;9.32;;
64242;SDS011;50573;51.512;5.386;2023-07-31T03:14:51;22.98;;;7.78;;
64242;SDS011;50573;51.512;5.386;2023-07-31T03:24:54;26.80;;;7.50;;
64242;SDS011;50573;51.512;5.386;2023-07-31T03:34:58;20.75;;;7.70;;
64242;SDS011;50573;51.512;5.386;2023-07-31T03:45:01;22.45;;;7.88;;
64242;SDS011;50573;51.512;5.386;2023-07-31T03:55:06;19.23;;;7.47;;
64242;SDS011;50573;51.512;5.386;2023-07-31T04:05:09;21.13;;;7.07;;
64242;SDS011;50573;51.512;5.386;2023-07-31T04:15:14;31.45;;;7.80;;
64242;SDS011;50573;51.512;5.386;2023-07-31T04:25:17;24.60;;;7.85;;
64242;SDS011;50573;51.512;5.386;2023-07-31T04:35:21;20.65;;;7.13;;
64242;SDS011;50573;51.512;5.386;2023-07-31T04:45:24;23.33;;;6.82;;
64242;SDS011;50573;51.512;5.386;2023-07-31T04:55:29;21.67;;;7.60;;
64242;SDS011;50573;51.512;5.386;2023-07-31T05:15:36;24.05;;;8.40;;
64242;SDS011;50573;51.512;5.386;2023-07-31T05:35:43;18.42;;;7.10;;
64242;SDS011;50573;51.512;5.386;2023-07-31T05:45:46;18.67;;;6.40;;
64242;SDS011;50573;51.512;5.386;2023-07-31T05:55:51;14.43;;;5.43;;
64242;SDS011;50573;51.512;5.386;2023-07-31T06:15:58;9.77;;;4.15;;
64242;SDS011;50573;51.512;5.386;2023-07-31T06:26:01;8.10;;;4.78;;
64242;SDS011;50573;51.512;5.386;2023-07-31T06:36:06;15.15;;;6.28;;
64242;SDS011;50573;51.512;5.386;2023-07-31T06:56:13;8.98;;;5.13;;
64242;SDS011;50573;51.512;5.386;2023-07-31T07:16:21;13.30;;;4.80;;
64242;SDS011;50573;51.512;5.386;2023-07-31T07:26:25;8.32;;;5.32;;
64242;SDS011;50573;51.512;5.386;2023-07-31T07:36:29;10.85;;;4.90;;
64242;SDS011;50573;51.512;5.386;2023-07-31T07:46:34;9.77;;;5.95;;
64242;SDS011;50573;51.512;5.386;2023-07-31T07:56:38;13.48;;;6.22;;
64242;SDS011;50573;51.512;5.386;2023-07-31T08:06:42;13.40;;;6.93;;
64242;SDS011;50573;51.512;5.386;2023-07-31T08:16:46;11.07;;;6.82;;
64242;SDS011;50573;51.512;5.386;2023-07-31T08:26:49;11.80;;;6.45;;
64242;SDS011;50573;51.512;5.386;2023-07-31T08:36:54;12.07;;;7.32;;
64242;SDS011;50573;51.512;5.386;2023-07-31T08:46:57;16.35;;;7.90;;
64242;SDS011;50573;51.512;5.386;2023-07-31T08:57:01;15.20;;;7.68;;
64242;SDS011;50573;51.512;5.386;2023-07-31T09:07:06;13.45;;;7.57;;
64242;SDS011;50573;51.512;5.386;2023-07-31T09:17:12;15.73;;;7.00;;
64242;SDS011;50573;51.512;5.386;2023-07-31T09:27:15;16.55;;;6.82;;
64242;SDS011;50573;51.512;5.386;2023-07-31T09:37:19;12.52;;;6.30;;
64242;SDS011;50573;51.512;5.386;2023-07-31T09:47:22;13.75;;;6.53;;
64242;SDS011;50573;51.512;5.386;2023-07-31T09:57:28;12.25;;;5.63;;
64242;SDS011;50573;51.512;5.386;2023-07-31T10:07:47;8.18;;;4.80;;
64242;SDS011;50573;51.512;5.386;2023-07-31T10:17:57;7.18;;;4.25;;
64242;SDS011;50573;51.512;5.386;2023-07-31T10:28:01;8.25;;;4.47;;
64242;SDS011;50573;51.512;5.386;2023-07-31T10:38:12;10.27;;;3.90;;
64242;SDS011;50573;51.512;5.386;2023-07-31T10:48:15;6.05;;;3.78;;
64242;SDS011;50573;51.512;5.386;2023-07-31T10:58:21;9.02;;;4.03;;
64242;SDS011;50573;51.512;5.386;2023-07-31T11:08:32;9.30;;;4.30;;
64242;SDS011;50573;51.512;5.386;2023-07-31T11:18:41;6.93;;;3.78;;
64242;SDS011;50573;51.512;5.386;2023-07-31T11:28:46;9.15;;;4.90;;
64242;SDS011;50573;51.512;5.386;2023-07-31T11:38:52;6.78;;;4.13;;
64242;SDS011;50573;51.512;5.386;2023-07-31T11:48:59;5.72;;;3.17;;
64242;SDS011;50573;51.512;5.386;2023-07-31T11:59:14;6.93;;;3.85;;
64242;SDS011;50573;51.512;5.386;2023-07-31T12:09:18;6.10;;;3.85;;
64242;SDS011;50573;51.512;5.386;2023-07-31T12:19:23;7.40;;;4.03;;
64242;SDS011;50573;51.512;5.386;2023-07-31T12:29:33;8.95;;;4.68;;
64242;SDS011;50573;51.512;5.386;2023-07-31T12:39:43;9.25;;;5.38;;
64242;SDS011;50573;51.512;5.386;2023-07-31T12:49:47;12.98;;;6.07;;
64242;SDS011;50573;51.512;5.386;2023-07-31T12:59:52;14.53;;;6.43;;
64242;SDS011;50573;51.512;5.386;2023-07-31T13:09:55;12.57;;;6.18;;
64242;SDS011;50573;51.512;5.386;2023-07-31T13:20:00;13.93;;;6.50;;
64242;SDS011;50573;51.512;5.386;2023-07-31T13:30:03;14.30;;;6.38;;
64242;SDS011;50573;51.512;5.386;2023-07-31T13:40:09;9.73;;;5.05;;
64242;SDS011;50573;51.512;5.386;2023-07-31T13:50:13;13.57;;;6.57;;
64242;SDS011;50573;51.512;5.386;2023-07-31T14:00:19;16.70;;;7.82;;
64242;SDS011;50573;51.512;5.386;2023-07-31T14:10:23;15.40;;;8.05;;
64242;SDS011;50573;51.512;5.386;2023-07-31T14:20:27;14.70;;;7.70;;
64242;SDS011;50573;51.512;5.386;2023-07-31T14:30:30;19.77;;;8.15;;
64242;SDS011;50573;51.512;5.386;2023-07-31T14:40:35;17.17;;;7.37;;
64242;SDS011;50573;51.512;5.386;2023-07-31T14:50:39;9.15;;;5.80;;
64242;SDS011;50573;51.512;5.386;2023-07-31T15:00:44;8.65;;;3.88;;
64242;SDS011;50573;51.512;5.386;2023-07-31T15:10:47;7.03;;;4.18;;
64242;SDS011;50573;51.512;5.386;2023-07-31T15:20:53;7.63;;;4.05;;
64242;SDS011;50573;51.512;5.386;2023-07-31T15:30:56;7.15;;;3.47;;
64242;SDS011;50573;51.512;5.386;2023-07-31T15:41:03;5.78;;;3.17;;
64242;SDS011;50573;51.512;5.386;2023-07-31T16:01:28;4.70;;;2.47;;
64242;SDS011;50573;51.512;5.386;2023-07-31T16:11:40;4.85;;;2.75;;
64242;SDS011;50573;51.512;5.386;2023-07-31T16:21:46;3.60;;;2.13;;
64242;SDS011;50573;51.512;5.386;2023-07-31T16:31:52;2.97;;;2.17;;
64242;SDS011;50573;51.512;5.386;2023-07-31T16:42:03;2.42;;;1.70;;
64242;SDS011;50573;51.512;5.386;2023-07-31T17:02:40;3.65;;;1.80;;
64242;SDS011;50573;51.512;5.386;2023-07-31T17:12:43;2.35;;;1.73;;
64242;SDS011;50573;51.512;5.386;2023-07-31T17:22:48;1.70;;;1.48;;
64242;SDS011;50573;51.512;5.386;2023-07-31T17:32:51;3.92;;;1.45;;
64242;SDS011;50573;51.512;5.386;2023-07-31T17:42:58;2.07;;;1.40;;
64242;SDS011;50573;51.512;5.386;2023-07-31T17:53:07;2.40;;;1.10;;
64242;SDS011;50573;51.512;5.386;2023-07-31T18:03:14;4.18;;;1.27;;
64242;SDS011;50573;51.512;5.386;2023-07-31T18:13:17;2.83;;;1.65;;
64242;SDS011;50573;51.512;5.386;2023-07-31T18:23:22;2.33;;;1.13;;
64242;SDS011;50573;51.512;5.386;2023-07-31T18:33:25;1.83;;;1.13;;
64242;SDS011;50573;51.512;5.386;2023-07-31T18:43:30;5.80;;;1.45;;
64242;SDS011;50573;51.512;5.386;2023-07-31T18:53:33;1.15;;;0.75;;
64242;SDS011;50573;51.512;5.386;2023-07-31T19:03:38;1.77;;;1.10;;
64242;SDS011;50573;51.512;5.386;2023-07-31T19:13:41;2.53;;;1.45;;
64242;SDS011;50573;51.512;5.386;2023-07-31T19:23:47;3.65;;;1.42;;
64242;SDS011;50573;51.512;5.386;2023-07-31T19:33:50;3.15;;;2.00;;
64242;SDS011;50573;51.512;5.386;2023-07-31T19:43:55;3.70;;;1.83;;
64242;SDS011;50573;51.512;5.386;2023-07-31T19:53:58;3.03;;;2.45;;
64242;SDS011;50573;51.512;5.386;2023-07-31T20:04:03;3.67;;;2.20;;
64242;SDS011;50573;51.512;5.386;2023-07-31T20:14:06;6.25;;;2.20;;
64242;SDS011;50573;51.512;5.386;2023-07-31T20:24:10;3.13;;;2.50;;
64242;SDS011;50573;51.512;5.386;2023-07-31T20:34:13;3.53;;;2.95;;
64242;SDS011;50573;51.512;5.386;2023-07-31T20:44:18;6.32;;;3.75;;
64242;SDS011;50573;51.512;5.386;2023-07-31T20:54:22;5.85;;;4.03;;
64242;SDS011;50573;51.512;5.386;2023-07-31T21:04:26;8.90;;;5.25;;
64242;SDS011;50573;51.512;5.386;2023-07-31T21:14:30;8.32;;;6.07;;
64242;SDS011;50573;51.512;5.386;2023-07-31T21:24:35;10.95;;;6.78;;
64242;SDS011;50573;51.512;5.386;2023-07-31T21:34:38;11.48;;;6.80;;
64242;SDS011;50573;51.512;5.386;2023-07-31T21:44:44;9.10;;;6.18;;
64242;SDS011;50573;51.512;5.386;2023-07-31T21:54:47;10.35;;;7.20;;
64242;SDS011;50573;51.512;5.386;2023-07-31T22:04:52;12.40;;;8.88;;
64242;SDS011;50573;51.512;5.386;2023-07-31T22:24:59;13.68;;;9.43;;
64242;SDS011;50573;51.512;5.386;2023-07-31T22:45:07;19.60;;;13.35;;
64242;SDS011;50573;51.512;5.386;2023-07-31T22:55:12;20.08;;;11.50;;
64242;SDS011;50573;51.512;5.386;2023-07-31T23:05:16;16.50;;;11.55;;
64242;SDS011;50573;51.512;5.386;2023-07-31T23:15:20;13.02;;;8.20;;
64242;SDS011;50573;51.512;5.386;2023-07-31T23:25:24;11.10;;;8.23;;
64242;SDS011;50573;51.512;5.386;2023-07-31T23:45:32;16.02;;;11.57;;
64242;SDS011;50573;51.512;5.386;2023-07-31T23:55:35;15.98;;;12.00;;
